Time;durP1;ratioP1;P1;durP2;ratioP2;P2;SDS_P1;SDS_P2;PMS_P1;PMS_P2;Temp;Humidity;BMP_temperature;BMP_pressure;BME280_temperature;BME280_humidity;BME280_pressure;Samples;Min_cycle;Max_cycle;Signal;HPM_P1;HPM_P2
2022/07/19 07:21:34;;;;;;;13.00;2.22;;;28.10;52.20;;;;;;5071568;28;20395;-48
2022/07/19 07:24:01;;;;;;;13.35;2.50;;;28.00;52.80;;;;;;5056766;28;20045;-44
2022/07/19 07:26:30;;;;;;;12.20;2.20;;;28.10;52.70;;;;;;5050228;28;20472;-43
2022/07/19 07:28:57;;;;;;;10.60;2.65;;;28.20;52.80;;;;;;5043896;28;20053;-49
2022/07/19 07:31:23;;;;;;;13.55;3.08;;;28.30;53.20;;;;;;5049299;28;20392;-49
2022/07/19 07:33:50;;;;;;;23.80;6.38;;;28.30;52.50;;;;;;5047440;28;20069;-49
2022/07/19 07:36:17;;;;;;;13.20;3.28;;;28.50;54.10;;;;;;5050072;28;20041;-47
2022/07/19 07:38:44;;;;;;;12.57;3.05;;;28.60;52.80;;;;;;5049251;28;20061;-49
2022/07/19 07:41:11;;;;;;;11.38;2.75;;;28.70;52.60;;;;;;5047763;28;20075;-48
2022/07/19 07:43:57;;;;;;;7.72;2.50;;;28.90;51.60;;;;;;5055124;28;20040;-47
2022/07/19 07:46:24;;;;;;;15.18;3.00;;;29.10;51.10;;;;;;5046690;28;20559;-47
2022/07/19 07:48:51;;;;;;;10.38;2.20;;;29.20;50.60;;;;;;5047070;28;20487;-50
2022/07/19 07:51:22;;;;;;;15.05;4.13;;;29.40;50.50;;;;;;5043211;28;20069;-47
2022/07/19 07:54:09;;;;;;;15.55;5.53;;;29.40;52.60;;;;;;5044006;28;20045;-47
2022/07/19 07:56:36;;;;;;;10.32;3.15;;;29.50;54.20;;;;;;5042731;28;20041;-44
2022/07/19 07:59:03;;;;;;;8.25;2.10;;;29.50;50.70;;;;;;5046502;28;20068;-47
2022/07/19 08:01:30;;;;;;;8.52;2.60;;;29.50;50.20;;;;;;5053541;28;20037;-46
2022/07/19 08:03:57;;;;;;;13.10;2.78;;;29.60;49.90;;;;;;5051136;28;20117;-49
2022/07/19 08:06:24;;;;;;;9.23;2.50;;;29.70;50.20;;;;;;5048768;28;20088;-49
2022/07/19 08:08:51;;;;;;;11.57;3.35;;;29.70;49.70;;;;;;5048599;28;20103;-48
2022/07/19 08:11:17;;;;;;;9.80;2.78;;;29.80;51.00;;;;;;5050438;28;20041;-45
2022/07/19 08:13:44;;;;;;;8.43;2.75;;;29.90;50.50;;;;;;5049188;28;20053;-50
2022/07/19 08:16:11;;;;;;;7.50;2.40;;;29.90;51.40;;;;;;5050801;28;20143;-46
2022/07/19 08:18:38;;;;;;;14.10;3.30;;;29.90;50.50;;;;;;5052284;28;20037;-47
2022/07/19 08:21:04;;;;;;;5.25;2.45;;;30.00;51.60;;;;;;5048438;28;20067;-45
2022/07/19 08:23:31;;;;;;;8.52;2.80;;;30.10;49.80;;;;;;5048748;28;20041;-47
2022/07/19 08:25:58;;;;;;;10.73;2.70;;;30.20;50.30;;;;;;5047113;28;20037;-46
2022/07/19 08:28:25;;;;;;;10.73;3.00;;;30.30;51.60;;;;;;5045239;28;20037;-49
2022/07/19 08:30:52;;;;;;;6.30;2.30;;;30.20;51.50;;;;;;5045959;28;20071;-52
2022/07/19 08:33:37;;;;;;;7.63;2.97;;;30.20;50.70;;;;;;5032542;28;20069;-45
2022/07/19 08:36:04;;;;;;;6.93;2.58;;;30.20;50.90;;;;;;5034357;28;20103;-48
2022/07/19 08:38:31;;;;;;;8.05;2.63;;;30.20;51.20;;;;;;5034511;28;20056;-49
2022/07/19 08:40:57;;;;;;;7.63;2.22;;;30.30;50.90;;;;;;5030452;28;20045;-49
2022/07/19 08:43:24;;;;;;;6.32;2.70;;;30.40;50.50;;;;;;5034443;28;20049;-49
2022/07/19 08:45:51;;;;;;;6.03;2.30;;;30.50;49.80;;;;;;5033197;28;20103;-47
2022/07/19 08:48:19;;;;;;;7.55;2.60;;;30.70;50.30;;;;;;5032955;28;20046;-48
2022/07/19 08:50:46;;;;;;;8.70;2.80;;;30.70;50.20;;;;;;5033902;28;20063;-49
2022/07/19 08:53:12;;;;;;;8.13;2.67;;;30.80;50.10;;;;;;5033952;28;20033;-45
2022/07/19 08:55:39;;;;;;;9.45;2.63;;;30.90;50.50;;;;;;5034844;28;20380;-47
2022/07/19 08:58:06;;;;;;;11.00;2.60;;;30.90;50.20;;;;;;5028619;28;20037;-46
2022/07/19 09:00:33;;;;;;;12.60;2.80;;;30.90;51.10;;;;;;5032845;28;20064;-50
2022/07/19 09:03:00;;;;;;;6.85;2.70;;;30.90;49.80;;;;;;5030034;28;20514;-48
2022/07/19 09:05:27;;;;;;;8.98;2.58;;;30.90;50.40;;;;;;5034684;28;20045;-45
2022/07/19 09:08:01;;;;;;;8.18;2.80;;;31.00;50.00;;;;;;5035325;28;20098;-45
2022/07/19 09:10:28;;;;;;;8.82;2.60;;;31.10;49.90;;;;;;5033778;28;20443;-46
2022/07/19 09:12:55;;;;;;;6.47;2.72;;;31.20;50.20;;;;;;5034324;28;20076;-47
2022/07/19 09:15:22;;;;;;;14.07;2.78;;;31.20;51.00;;;;;;5032248;28;20539;-47
2022/07/19 09:17:49;;;;;;;10.80;2.70;;;31.20;50.50;;;;;;5031274;28;20492;-47
2022/07/19 09:20:16;;;;;;;9.02;2.53;;;31.20;51.00;;;;;;5031981;28;20049;-50
2022/07/19 09:22:42;;;;;;;8.13;2.72;;;31.30;51.00;;;;;;5033222;28;20049;-51
2022/07/19 09:25:09;;;;;;;6.72;2.70;;;31.30;50.90;;;;;;5034287;28;20041;-44
2022/07/19 09:27:36;;;;;;;14.40;2.75;;;31.40;50.70;;;;;;5032599;28;20115;-44
2022/07/19 09:30:02;;;;;;;7.00;2.33;;;31.40;51.30;;;;;;5028628;28;20096;-47
2022/07/19 09:32:29;;;;;;;8.13;2.78;;;31.50;52.00;;;;;;5024516;28;20052;-46
2022/07/19 09:34:56;;;;;;;8.95;2.58;;;31.50;51.00;;;;;;5034055;28;20558;-48
2022/07/19 09:37:23;;;;;;;10.40;2.90;;;31.60;51.10;;;;;;5033800;28;20061;-45
2022/07/19 09:39:50;;;;;;;7.35;2.63;;;31.60;50.90;;;;;;5033691;28;20034;-45
2022/07/19 09:42:16;;;;;;;8.57;2.83;;;31.60;51.00;;;;;;5033909;28;20037;-47
2022/07/19 09:44:43;;;;;;;9.90;3.00;;;31.60;51.20;;;;;;5033331;28;20087;-47
2022/07/19 09:47:10;;;;;;;8.65;2.75;;;31.70;51.20;;;;;;5031671;28;20034;-47
2022/07/19 09:49:38;;;;;;;8.82;2.95;;;31.80;51.50;;;;;;5030564;28;20740;-47
2022/07/19 09:52:05;;;;;;;10.10;3.28;;;31.80;51.20;;;;;;5028616;28;20037;-49
2022/07/19 09:54:32;;;;;;;9.88;2.60;;;31.80;50.60;;;;;;5032962;28;20069;-44
2022/07/19 09:56:58;;;;;;;10.90;3.00;;;31.90;50.90;;;;;;5033061;28;20341;-51
2022/07/19 09:59:26;;;;;;;8.13;2.55;;;32.00;50.50;;;;;;5031602;28;20068;-46
2022/07/19 10:01:53;;;;;;;11.55;3.00;;;32.10;50.90;;;;;;5033267;28;20055;-46
2022/07/19 10:04:20;;;;;;;10.57;2.70;;;32.10;50.50;;;;;;5037853;28;20044;-47
2022/07/19 10:06:47;;;;;;;7.93;2.95;;;32.10;51.10;;;;;;5027266;28;20116;-47
2022/07/19 10:09:14;;;;;;;9.68;2.58;;;32.00;51.00;;;;;;5038038;28;20037;-45
2022/07/19 10:11:40;;;;;;;7.75;3.28;;;32.00;50.40;;;;;;5033896;28;20117;-48
2022/07/19 10:14:07;;;;;;;7.20;2.67;;;32.00;49.60;;;;;;5035112;28;20084;-47
2022/07/19 10:16:34;;;;;;;10.63;2.95;;;32.20;49.50;;;;;;5033200;28;20045;-47
2022/07/19 10:19:01;;;;;;;8.60;3.00;;;32.30;49.10;;;;;;5032542;28;20037;-46
2022/07/19 10:21:28;;;;;;;12.55;3.25;;;32.50;48.80;;;;;;5032390;28;20065;-45
2022/07/19 10:23:55;;;;;;;10.80;3.20;;;32.70;48.90;;;;;;5030795;28;20041;-48
2022/07/19 10:26:21;;;;;;;7.90;2.60;;;32.80;47.80;;;;;;5030717;28;20520;-50
2022/07/19 10:28:48;;;;;;;9.52;2.95;;;32.90;47.50;;;;;;5031226;28;20053;-49
2022/07/19 10:31:38;;;;;;;5.80;2.70;;;32.90;47.00;;;;;;5022820;28;20045;-46
2022/07/19 10:34:05;;;;;;;8.82;2.60;;;33.00;47.40;;;;;;5033046;28;20045;-49
2022/07/19 10:36:32;;;;;;;8.70;2.85;;;33.00;47.20;;;;;;5033133;28;20500;-48
2022/07/19 10:38:58;;;;;;;8.82;3.10;;;33.10;48.10;;;;;;5034637;28;20037;-48
2022/07/19 10:41:25;;;;;;;10.63;3.40;;;33.20;47.40;;;;;;5032869;28;20060;-47
2022/07/19 10:43:52;;;;;;;8.55;2.72;;;33.20;47.40;;;;;;5035392;28;20338;-45
2022/07/19 10:46:19;;;;;;;8.63;3.22;;;33.10;47.60;;;;;;5029710;28;20060;-48
2022/07/19 10:48:46;;;;;;;10.98;3.35;;;33.10;45.20;;;;;;5032678;28;20045;-50
2022/07/19 10:51:13;;;;;;;11.32;2.85;;;33.20;45.30;;;;;;5031314;28;20034;-47
2022/07/19 10:53:43;;;;;;;11.30;2.75;;;33.40;44.90;;;;;;5033010;28;20408;-48
2022/07/19 10:56:09;;;;;;;10.55;2.78;;;33.40;45.80;;;;;;5031949;28;20042;-56
2022/07/19 10:58:36;;;;;;;9.85;3.25;;;33.50;44.90;;;;;;5030436;28;20476;-49
2022/07/19 11:01:04;;;;;;;9.68;2.85;;;33.60;45.30;;;;;;5032076;28;20076;-46
2022/07/19 11:03:31;;;;;;;10.02;3.25;;;33.70;44.60;;;;;;5031176;28;20045;-54
2022/07/19 11:05:58;;;;;;;13.85;3.03;;;33.80;45.50;;;;;;5031270;28;20041;-48
2022/07/19 11:08:25;;;;;;;8.95;3.10;;;33.90;45.10;;;;;;5030389;28;20039;-50
2022/07/19 11:10:51;;;;;;;11.27;3.28;;;33.90;45.50;;;;;;5031473;28;20546;-48
2022/07/19 11:13:18;;;;;;;11.40;3.30;;;34.00;43.40;;;;;;5033650;28;20046;-48
2022/07/19 11:15:45;;;;;;;9.35;3.20;;;34.00;45.10;;;;;;5031353;28;20121;-48
2022/07/19 11:18:18;;;;;;;10.02;3.22;;;34.00;45.60;;;;;;5027679;28;20103;-49
2022/07/19 11:20:45;;;;;;;8.40;2.75;;;34.10;43.50;;;;;;5031853;28;20135;-49
2022/07/19 11:23:12;;;;;;;11.75;2.90;;;34.20;44.60;;;;;;5031427;28;20057;-49
2022/07/19 11:25:41;;;;;;;12.20;3.47;;;34.30;44.00;;;;;;5024168;28;20071;-46
2022/07/19 11:28:08;;;;;;;6.93;3.10;;;34.20;43.50;;;;;;5032033;28;20378;-47
2022/07/19 11:30:36;;;;;;;12.13;3.75;;;34.30;43.80;;;;;;5031865;28;20049;-48
2022/07/19 11:33:03;;;;;;;10.48;3.22;;;34.30;42.80;;;;;;5030659;28;20033;-48
2022/07/19 11:35:30;;;;;;;7.93;3.10;;;34.40;43.90;;;;;;5031604;28;20504;-45
2022/07/19 11:37:57;;;;;;;15.50;3.80;;;34.50;42.80;;;;;;5031771;28;20045;-51
2022/07/19 11:40:24;;;;;;;11.25;3.25;;;34.50;43.20;;;;;;5030508;28;20554;-49
2022/07/19 11:42:50;;;;;;;10.52;2.90;;;34.60;42.50;;;;;;5031601;28;20033;-51
2022/07/19 11:45:37;;;;;;;9.00;2.80;;;34.60;43.30;;;;;;5031280;28;20059;-46
2022/07/19 11:48:04;;;;;;;11.88;3.33;;;34.60;43.30;;;;;;5030354;28;20115;-50
2022/07/19 11:50:31;;;;;;;8.90;2.95;;;34.60;42.10;;;;;;5029191;28;20400;-43
2022/07/19 11:52:58;;;;;;;10.77;3.00;;;34.60;42.50;;;;;;5031924;28;20060;-47
2022/07/19 11:55:24;;;;;;;13.65;3.22;;;34.60;43.20;;;;;;5032292;28;20041;-45
2022/07/19 11:57:51;;;;;;;9.45;3.13;;;34.60;42.60;;;;;;5027995;28;20550;-48
2022/07/19 12:00:18;;;;;;;9.88;3.08;;;34.60;41.90;;;;;;5030720;28;20038;-51
2022/07/19 12:02:44;;;;;;;11.23;3.00;;;34.70;42.10;;;;;;5033547;28;20064;-46
2022/07/19 12:05:11;;;;;;;10.18;3.00;;;34.70;41.10;;;;;;5032197;28;20374;-49
2022/07/19 12:07:38;;;;;;;11.48;3.05;;;34.80;42.30;;;;;;5039000;28;20033;-48
2022/07/19 12:10:13;;;;;;;7.07;2.70;;;34.80;42.70;;;;;;5035786;28;20047;-49
2022/07/19 12:12:39;;;;;;;7.05;2.80;;;34.80;42.00;;;;;;5035595;28;20436;-50
2022/07/19 12:15:07;;;;;;;10.07;2.75;;;34.80;41.10;;;;;;5032896;28;20042;-46
2022/07/19 12:17:33;;;;;;;12.50;3.50;;;34.90;42.90;;;;;;5035740;28;20075;-49
2022/07/19 12:20:00;;;;;;;11.18;3.03;;;34.90;42.60;;;;;;5035161;28;20055;-47
2022/07/19 12:22:47;;;;;;;12.65;3.58;;;35.00;40.90;;;;;;5036102;28;20049;-51
2022/07/19 12:25:14;;;;;;;9.88;3.10;;;35.10;41.40;;;;;;5037223;28;20053;-47
2022/07/19 12:27:41;;;;;;;11.52;3.17;;;35.10;41.50;;;;;;5033925;28;20116;-49
2022/07/19 12:30:08;;;;;;;10.82;3.00;;;35.10;40.80;;;;;;5033385;28;20103;-49
2022/07/19 12:32:35;;;;;;;13.63;3.30;;;35.20;43.20;;;;;;5035012;28;20045;-46
2022/07/19 12:35:02;;;;;;;12.48;2.90;;;35.20;40.80;;;;;;5034388;28;20507;-49
2022/07/19 12:37:28;;;;;;;9.88;3.22;;;35.20;42.70;;;;;;5036286;28;20395;-49
2022/07/19 12:39:55;;;;;;;12.52;3.00;;;35.30;41.50;;;;;;5034599;28;20432;-49
2022/07/19 12:42:22;;;;;;;13.15;3.05;;;35.30;40.80;;;;;;5039815;28;20111;-49
2022/07/19 12:44:49;;;;;;;12.45;3.10;;;35.40;39.60;;;;;;5035457;28;20514;-50
2022/07/19 12:47:16;;;;;;;11.38;3.42;;;35.40;41.50;;;;;;5036139;28;20111;-51
2022/07/19 12:50:02;;;;;;;9.35;3.00;;;35.50;41.00;;;;;;5035037;28;20073;-48
2022/07/19 12:52:37;;;;;;;8.20;2.80;;;35.40;41.00;;;;;;5034954;28;20100;-52
2022/07/19 12:55:04;;;;;;;11.35;3.38;;;35.40;40.70;;;;;;5035017;28;20049;-45
2022/07/19 12:57:33;;;;;;;9.98;3.03;;;35.60;40.70;;;;;;5034896;28;20038;-45
2022/07/19 13:00:00;;;;;;;8.75;3.13;;;35.60;40.80;;;;;;5033998;28;20117;-48
2022/07/19 13:02:26;;;;;;;15.13;3.22;;;35.70;40.60;;;;;;5034727;28;20041;-47
2022/07/19 13:04:53;;;;;;;10.88;3.70;;;35.70;40.60;;;;;;5038585;28;20087;-49
2022/07/19 13:07:20;;;;;;;15.57;3.20;;;35.70;40.30;;;;;;5034414;28;20041;-48
2022/07/19 13:09:47;;;;;;;7.47;2.80;;;35.80;40.60;;;;;;5034676;28;20037;-49
2022/07/19 13:12:13;;;;;;;10.55;3.75;;;35.80;40.40;;;;;;5033860;28;20485;-52
2022/07/19 13:14:40;;;;;;;13.98;3.55;;;35.90;39.60;;;;;;5034755;28;20037;-50
2022/07/19 13:17:10;;;;;;;11.15;3.92;;;35.90;39.30;;;;;;5033394;28;20483;-51
2022/07/19 13:19:37;;;;;;;11.82;3.53;;;36.00;40.70;;;;;;5034496;28;20068;-51
2022/07/19 13:22:04;;;;;;;9.75;2.90;;;36.00;40.90;;;;;;5033596;28;20053;-50
2022/07/19 13:24:31;;;;;;;10.85;3.28;;;36.00;42.60;;;;;;5034675;28;20049;-50
2022/07/19 13:27:18;;;;;;;12.88;3.28;;;36.00;40.50;;;;;;5034695;28;20045;-51
2022/07/19 13:29:45;;;;;;;7.60;2.88;;;36.00;41.40;;;;;;5034634;28;20080;-50
2022/07/19 13:32:12;;;;;;;9.18;3.50;;;36.00;41.30;;;;;;5033420;28;20404;-50
2022/07/19 13:34:39;;;;;;;8.27;2.88;;;36.00;41.60;;;;;;5034378;28;20052;-46
2022/07/19 13:37:06;;;;;;;11.38;3.03;;;36.10;41.30;;;;;;5034432;28;20087;-53
2022/07/19 13:39:33;;;;;;;8.88;3.25;;;36.10;42.40;;;;;;5034413;28;20045;-45
2022/07/19 13:41:59;;;;;;;9.43;3.33;;;36.10;42.40;;;;;;5034116;28;20420;-47
2022/07/19 13:44:26;;;;;;;9.70;2.97;;;36.10;41.40;;;;;;5034353;28;20069;-49
2022/07/19 13:46:53;;;;;;;10.27;2.85;;;36.10;41.60;;;;;;5034184;28;20045;-50
2022/07/19 13:49:20;;;;;;;10.27;3.20;;;36.20;41.60;;;;;;5033909;28;20096;-48
2022/07/19 13:51:46;;;;;;;10.82;2.83;;;36.20;41.10;;;;;;5035879;28;20037;-50
2022/07/19 13:54:13;;;;;;;12.20;3.28;;;36.20;42.80;;;;;;5034632;28;20162;-49
2022/07/19 13:56:40;;;;;;;10.77;3.35;;;36.10;41.80;;;;;;5034046;28;20059;-48
2022/07/19 13:59:07;;;;;;;11.30;3.03;;;36.10;41.60;;;;;;5034024;28;20087;-46
2022/07/19 14:01:33;;;;;;;8.93;3.03;;;36.10;41.50;;;;;;5033808;28;20053;-50
2022/07/19 14:04:16;;;;;;;9.00;3.22;;;36.20;41.30;;;;;;5033816;28;20124;-47
2022/07/19 14:06:49;;;;;;;11.30;3.55;;;36.30;41.30;;;;;;5031351;28;20079;-49
2022/07/19 14:09:16;;;;;;;9.40;3.10;;;36.30;42.00;;;;;;5030313;28;20108;-51
2022/07/19 14:11:44;;;;;;;7.28;3.08;;;36.20;42.20;;;;;;5033128;28;20124;-50
2022/07/19 14:14:11;;;;;;;13.07;3.35;;;36.30;42.40;;;;;;5033885;28;20056;-51
2022/07/19 14:16:38;;;;;;;10.48;3.50;;;36.30;42.10;;;;;;5033725;28;20128;-52
2022/07/19 14:19:05;;;;;;;11.40;3.05;;;36.20;42.10;;;;;;5033432;28;20048;-49
2022/07/19 14:21:34;;;;;;;12.00;3.30;;;36.20;41.30;;;;;;5032493;28;20084;-50
2022/07/19 14:24:00;;;;;;;7.50;2.80;;;36.30;41.50;;;;;;5033813;28;20552;-49
2022/07/19 14:26:27;;;;;;;11.05;3.53;;;36.30;41.00;;;;;;5036972;28;20400;-50
2022/07/19 14:28:54;;;;;;;11.88;3.25;;;36.40;41.30;;;;;;5033302;28;20049;-48
2022/07/19 14:31:21;;;;;;;9.30;3.13;;;36.40;40.70;;;;;;5033503;28;20071;-48
2022/07/19 14:33:47;;;;;;;9.27;3.47;;;36.40;41.00;;;;;;5033702;28;20041;-47
2022/07/19 14:36:14;;;;;;;15.93;3.22;;;36.50;41.10;;;;;;5036391;28;20034;-45
2022/07/19 14:38:41;;;;;;;10.65;3.38;;;36.50;40.90;;;;;;5033610;28;20037;-50
2022/07/19 14:41:08;;;;;;;10.63;3.50;;;36.50;41.30;;;;;;5032513;28;20091;-50
2022/07/19 14:43:34;;;;;;;11.85;3.35;;;36.40;41.60;;;;;;5033628;28;20087;-50
2022/07/19 14:46:02;;;;;;;13.18;3.53;;;36.50;41.40;;;;;;5033531;28;20038;-48
2022/07/19 14:48:29;;;;;;;16.55;3.42;;;36.50;41.10;;;;;;5035698;28;20068;-48
2022/07/19 14:50:56;;;;;;;9.77;3.20;;;36.50;41.20;;;;;;5035549;28;20472;-51
2022/07/19 14:53:22;;;;;;;8.73;2.88;;;36.50;42.70;;;;;;5033491;28;20065;-52
2022/07/19 14:55:49;;;;;;;10.20;3.28;;;36.50;41.50;;;;;;5033224;28;20072;-48
2022/07/19 14:58:17;;;;;;;9.57;3.40;;;36.60;41.90;;;;;;5033162;28;20033;-47
2022/07/19 15:00:44;;;;;;;10.48;3.38;;;36.60;41.50;;;;;;5036316;28;20045;-51
2022/07/19 15:03:10;;;;;;;12.77;3.42;;;36.70;41.20;;;;;;5033405;28;20041;-51
2022/07/19 15:05:37;;;;;;;10.38;3.00;;;36.70;40.40;;;;;;5033064;28;20046;-53
2022/07/19 15:08:04;;;;;;;11.15;2.90;;;36.80;40.30;;;;;;5033186;28;20042;-50
2022/07/19 15:10:31;;;;;;;12.35;3.13;;;36.70;40.70;;;;;;5032532;28;20037;-54
2022/07/19 15:12:58;;;;;;;11.77;3.05;;;36.80;40.30;;;;;;5036341;28;20503;-50
2022/07/19 15:15:24;;;;;;;12.65;3.30;;;36.90;41.10;;;;;;5031595;28;20045;-51
2022/07/19 15:17:51;;;;;;;12.43;3.28;;;36.90;41.00;;;;;;5026434;28;20045;-51
2022/07/19 15:20:24;;;;;;;11.97;3.13;;;36.90;40.80;;;;;;5032193;28;20128;-46
2022/07/19 15:22:51;;;;;;;6.38;3.20;;;36.90;40.80;;;;;;5024376;28;20057;-49
2022/07/19 15:25:21;;;;;;;14.02;3.33;;;37.00;40.50;;;;;;5036912;28;20051;-52
2022/07/19 15:27:48;;;;;;;10.38;3.60;;;37.00;42.30;;;;;;5031439;28;20392;-49
2022/07/19 15:30:14;;;;;;;15.27;3.67;;;37.00;41.40;;;;;;5026564;28;20042;-49
2022/07/19 15:32:41;;;;;;;9.35;3.50;;;37.10;41.40;;;;;;5030776;28;20041;-48
2022/07/19 15:35:08;;;;;;;9.07;3.25;;;37.10;41.60;;;;;;5025352;28;20042;-51
2022/07/19 15:37:44;;;;;;;12.48;2.97;;;37.30;40.10;;;;;;5037904;28;20124;-46
2022/07/19 15:40:12;;;;;;;8.45;3.30;;;37.30;40.10;;;;;;5027376;28;20044;-49
2022/07/19 15:42:39;;;;;;;16.05;2.83;;;37.50;41.10;;;;;;5036918;28;20415;-48
2022/07/19 15:45:06;;;;;;;12.02;3.10;;;37.40;41.70;;;;;;5034289;28;20034;-46
2022/07/19 15:47:32;;;;;;;14.07;3.55;;;37.50;40.80;;;;;;5036006;28;20045;-46
2022/07/19 15:49:59;;;;;;;10.85;3.15;;;37.60;40.70;;;;;;5038772;28;20122;-48
2022/07/19 15:52:26;;;;;;;9.73;2.88;;;37.60;41.20;;;;;;5034404;28;20480;-47
2022/07/19 15:54:53;;;;;;;10.95;3.10;;;37.70;40.20;;;;;;5036301;28;20112;-47
2022/07/19 15:57:20;;;;;;;10.27;3.38;;;37.90;40.00;;;;;;5033570;28;20493;-47
2022/07/19 15:59:46;;;;;;;10.15;3.17;;;38.40;39.80;;;;;;5032143;28;20037;-46
2022/07/19 16:02:13;;;;;;;15.38;3.22;;;38.80;40.00;;;;;;5035918;28;20049;-50
2022/07/19 16:04:40;;;;;;;8.35;2.90;;;39.30;38.90;;;;;;5031297;28;20053;-49
2022/07/19 16:07:13;;;;;;;10.60;3.10;;;39.50;38.90;;;;;;5035360;28;20041;-49
2022/07/19 16:09:40;;;;;;;9.73;3.60;;;39.80;38.60;;;;;;5035209;28;20041;-47
2022/07/19 16:12:06;;;;;;;13.32;3.03;;;40.10;38.60;;;;;;5032772;28;20048;-53
2022/07/19 16:14:33;;;;;;;11.18;3.33;;;40.20;38.60;;;;;;5036312;28;20041;-46
2022/07/19 16:17:00;;;;;;;8.70;3.10;;;40.40;38.70;;;;;;5034937;28;20496;-48
2022/07/19 16:19:27;;;;;;;12.63;3.85;;;40.50;37.90;;;;;;5031911;28;20128;-45
2022/07/19 16:21:54;;;;;;;11.30;3.03;;;40.60;38.10;;;;;;5040260;28;20057;-47
2022/07/19 16:24:20;;;;;;;11.70;3.08;;;40.80;38.20;;;;;;5040176;28;20034;-49
2022/07/19 16:26:47;;;;;;;8.30;3.05;;;40.90;37.90;;;;;;5036151;28;20037;-52
2022/07/19 16:29:34;;;;;;;10.43;3.03;;;41.10;37.60;;;;;;5033474;28;20099;-53
2022/07/19 16:32:01;;;;;;;14.18;2.70;;;41.20;37.80;;;;;;5031046;28;20087;-46
2022/07/19 16:34:28;;;;;;;6.75;2.90;;;41.20;38.10;;;;;;5034314;28;20365;-50
2022/07/19 16:36:54;;;;;;;6.75;3.15;;;41.20;38.00;;;;;;5033887;28;20064;-47
2022/07/19 16:39:21;;;;;;;11.82;2.75;;;41.30;37.90;;;;;;5034166;28;20060;-51
2022/07/19 16:42:03;;;;;;;11.00;2.95;;;41.40;38.00;;;;;;5029856;28;20092;-47
2022/07/19 16:44:30;;;;;;;8.93;3.00;;;41.40;37.80;;;;;;5032525;28;20463;-49
2022/07/19 16:46:57;;;;;;;9.80;2.60;;;41.40;37.70;;;;;;5032638;28;20049;-46
2022/07/19 16:49:24;;;;;;;9.38;2.67;;;41.50;37.60;;;;;;5030681;28;20549;-48
2022/07/19 16:51:50;;;;;;;6.10;2.78;;;41.40;37.40;;;;;;5034804;28;20033;-50
2022/07/19 16:54:23;;;;;;;9.50;2.90;;;41.30;37.50;;;;;;5031817;28;20037;-50
2022/07/19 16:56:50;;;;;;;7.35;2.60;;;41.40;37.30;;;;;;5033921;28;20065;-48
2022/07/19 16:59:17;;;;;;;9.70;2.90;;;41.30;37.80;;;;;;5035272;28;20053;-49
2022/07/19 17:01:44;;;;;;;6.22;3.13;;;41.30;37.60;;;;;;5031730;28;20091;-48
2022/07/19 17:04:10;;;;;;;8.68;2.70;;;41.40;37.50;;;;;;5032820;28;20033;-46
2022/07/19 17:06:37;;;;;;;10.60;2.95;;;41.60;37.00;;;;;;5031161;28;20088;-49
2022/07/19 17:09:05;;;;;;;5.38;2.40;;;41.70;37.50;;;;;;5029747;28;20355;-51
2022/07/19 17:11:32;;;;;;;9.50;2.90;;;41.70;37.10;;;;;;5032958;28;20542;-52
2022/07/19 17:13:59;;;;;;;11.77;2.90;;;41.70;37.00;;;;;;5030332;28;20476;-50
2022/07/19 17:16:26;;;;;;;9.73;2.78;;;41.70;37.20;;;;;;5033156;28;20065;-48
2022/07/19 17:18:53;;;;;;;6.95;2.60;;;41.20;37.00;;;;;;5032600;28;20515;-51
2022/07/19 17:21:20;;;;;;;8.88;3.00;;;40.80;37.60;;;;;;5032320;28;20049;-50
2022/07/19 17:23:47;;;;;;;9.63;3.10;;;40.30;38.00;;;;;;5026844;28;20041;-51
2022/07/19 17:26:14;;;;;;;6.25;2.83;;;39.90;37.80;;;;;;5034473;28;20040;-48
2022/07/19 17:28:41;;;;;;;10.02;3.75;;;39.50;38.30;;;;;;5031862;28;20041;-49
2022/07/19 17:31:08;;;;;;;7.93;3.08;;;39.50;38.40;;;;;;5032676;28;20103;-52
2022/07/19 17:33:35;;;;;;;7.97;2.80;;;39.40;39.10;;;;;;5032536;28;20050;-49
2022/07/19 17:36:02;;;;;;;7.35;2.60;;;39.30;39.20;;;;;;5031201;28;20103;-54
2022/07/19 17:38:28;;;;;;;9.82;2.97;;;39.00;39.00;;;;;;5035515;28;20361;-50
2022/07/19 17:40:55;;;;;;;7.13;2.97;;;38.80;39.20;;;;;;5032008;28;20420;-45
2022/07/19 17:43:22;;;;;;;8.73;2.60;;;38.60;39.50;;;;;;5035012;28;20399;-48
2022/07/19 17:45:49;;;;;;;7.15;3.05;;;38.40;39.80;;;;;;5033006;28;20041;-53
2022/07/19 17:48:15;;;;;;;8.10;2.80;;;38.10;39.50;;;;;;5034533;28;20132;-47
2022/07/19 17:50:42;;;;;;;9.90;3.33;;;37.90;40.20;;;;;;5035822;28;20121;-49
2022/07/19 17:53:09;;;;;;;8.82;3.33;;;37.70;40.60;;;;;;5032906;28;20048;-49
2022/07/19 17:55:36;;;;;;;9.15;2.75;;;37.50;40.90;;;;;;5033614;28;20041;-48
2022/07/19 17:58:03;;;;;;;11.77;3.40;;;37.30;41.00;;;;;;5035538;28;20542;-50
2022/07/19 18:00:29;;;;;;;10.18;3.47;;;37.10;41.70;;;;;;5034187;28;20095;-52
2022/07/19 18:02:57;;;;;;;6.43;3.05;;;37.00;41.60;;;;;;5035358;28;20045;-45
2022/07/19 18:05:24;;;;;;;6.18;3.22;;;36.80;41.50;;;;;;5032091;28;20095;-53
2022/07/19 18:07:51;;;;;;;6.05;3.25;;;36.70;41.90;;;;;;5033704;28;20049;-50
2022/07/19 18:10:18;;;;;;;8.10;3.25;;;36.60;41.90;;;;;;5034061;28;20049;-48
2022/07/19 18:12:45;;;;;;;7.22;2.90;;;36.40;41.80;;;;;;5034090;28;20042;-49
2022/07/19 18:15:15;;;;;;;8.70;2.90;;;36.30;42.40;;;;;;5034360;28;20460;-48
2022/07/19 18:17:42;;;;;;;6.53;3.10;;;36.20;42.30;;;;;;5034059;28;20049;-47
2022/07/19 18:20:09;;;;;;;10.20;3.47;;;36.10;42.50;;;;;;5032035;28;20037;-50
2022/07/19 18:22:35;;;;;;;7.65;3.10;;;35.90;42.50;;;;;;5029193;28;20045;-50
2022/07/19 18:25:02;;;;;;;12.07;3.28;;;35.80;43.20;;;;;;5034741;28;20379;-48
2022/07/19 18:27:29;;;;;;;5.03;3.17;;;35.70;43.40;;;;;;5024118;28;20046;-49
2022/07/19 18:29:55;;;;;;;9.52;3.30;;;35.70;43.70;;;;;;5029060;28;20041;-52
2022/07/19 18:32:22;;;;;;;8.35;3.72;;;35.60;43.90;;;;;;5031342;28;20473;-47
2022/07/19 18:34:49;;;;;;;11.93;3.47;;;35.40;43.90;;;;;;5030814;28;20033;-52
2022/07/19 18:37:16;;;;;;;5.57;3.70;;;35.30;44.00;;;;;;5030812;28;20038;-50
2022/07/19 18:39:44;;;;;;;9.50;3.90;;;35.10;44.30;;;;;;5033758;28;20044;-48
2022/07/19 18:42:10;;;;;;;28.27;4.40;;;34.90;45.60;;;;;;5025729;28;20618;-54
2022/07/19 18:44:37;;;;;;;13.23;4.15;;;34.60;46.90;;;;;;5032314;28;20551;-48
2022/07/19 18:47:15;;;;;;;20.05;4.28;;;34.40;47.50;;;;;;5030949;28;20038;-50
2022/07/19 18:49:43;;;;;;;15.65;4.72;;;34.10;49.70;;;;;;5031531;28;20136;-52
2022/07/19 18:52:11;;;;;;;12.63;5.13;;;33.90;51.30;;;;;;5030928;28;20045;-50
2022/07/19 18:54:38;;;;;;;15.88;5.80;;;33.60;51.00;;;;;;5030275;28;20042;-51
2022/07/19 18:57:05;;;;;;;11.68;5.40;;;33.30;51.30;;;;;;5032527;28;20038;-46
2022/07/19 18:59:31;;;;;;;16.25;5.38;;;33.10;51.40;;;;;;5032374;28;20041;-43
2022/07/19 19:01:58;;;;;;;12.10;5.85;;;33.00;51.90;;;;;;5032841;28;20033;-51
2022/07/19 19:04:25;;;;;;;21.63;5.85;;;32.80;51.90;;;;;;5033101;28;20050;-45
2022/07/19 19:06:52;;;;;;;13.65;6.32;;;32.70;52.20;;;;;;5031242;28;20052;-48
2022/07/19 19:09:19;;;;;;;15.32;6.57;;;32.60;52.70;;;;;;5033091;28;20050;-50
2022/07/19 19:11:45;;;;;;;14.00;6.55;;;32.50;53.10;;;;;;5032822;28;20037;-49
2022/07/19 19:14:12;;;;;;;20.23;6.78;;;32.40;53.50;;;;;;5029247;28;20076;-50
2022/07/19 19:16:39;;;;;;;16.58;7.57;;;32.20;53.80;;;;;;5030092;28;20037;-50
2022/07/19 19:19:06;;;;;;;13.88;7.30;;;32.10;53.90;;;;;;5032107;28;20049;-49
2022/07/19 19:21:35;;;;;;;19.70;7.43;;;32.00;54.10;;;;;;5028641;28;20041;-50
2022/07/19 19:24:01;;;;;;;14.35;8.27;;;31.90;54.10;;;;;;5030097;28;20046;-49
2022/07/19 19:26:28;;;;;;;12.30;7.57;;;31.80;55.00;;;;;;5032452;28;20049;-48
2022/07/19 19:28:55;;;;;;;16.67;7.20;;;31.80;55.70;;;;;;5029851;28;20046;-49
2022/07/19 19:31:23;;;;;;;13.88;8.45;;;31.80;55.10;;;;;;5030533;28;20500;-45
2022/07/19 19:33:50;;;;;;;25.20;8.75;;;31.70;55.30;;;;;;5032316;28;20045;-50
2022/07/19 19:36:16;;;;;;;24.40;8.43;;;31.60;55.80;;;;;;5029721;28;20036;-50
2022/07/19 19:38:43;;;;;;;22.40;8.75;;;31.40;57.60;;;;;;5030646;28;20076;-48
2022/07/19 19:41:16;;;;;;;15.07;8.13;;;31.20;60.50;;;;;;5030398;28;20029;-48
2022/07/19 19:43:43;;;;;;;13.95;7.95;;;30.90;61.00;;;;;;5035465;28;20048;-48
2022/07/19 19:46:10;;;;;;;17.50;9.90;;;30.70;60.30;;;;;;5029551;28;20037;-46
2022/07/19 19:48:37;;;;;;;17.63;10.60;;;30.40;60.40;;;;;;5031430;28;20030;-52
2022/07/19 19:51:04;;;;;;;22.15;11.27;;;30.10;60.90;;;;;;5033408;28;20046;-48
2022/07/19 19:53:30;;;;;;;19.05;10.52;;;29.90;61.50;;;;;;5027957;28;20087;-49
2022/07/19 19:55:57;;;;;;;15.73;10.82;;;29.80;61.80;;;;;;5033097;28;20030;-48
2022/07/19 19:58:24;;;;;;;23.13;11.27;;;29.60;62.50;;;;;;5031450;28;20049;-49
2022/07/19 20:00:51;;;;;;;16.48;10.35;;;29.50;62.20;;;;;;5032487;28;20029;-45
2022/07/19 20:03:18;;;;;;;18.33;10.63;;;29.40;62.30;;;;;;5031635;28;20463;-45